»·PEaware :: N81GF KMOT-KSTP

N81GF :: KMOT-KSTP

FLIGHT INFORMATION

Flight Status: Arrived
Operator: Privately registered:
United States
More flights under this callsign
Pilot: Stephen F. (29053)
Aircraft: PILATUS PC-12 EAGLE
(PC12)
More flights by this aircraft type
Origin: KMOT Minot Intl
United States
Destination: KSTP St Paul Downtown-Holman
United States
More flights between these airports :: More routes between these airports
Route: FAR GEP1
File this flight plan on PilotEdge
Remarks:
Altitude:
(Current/Filed)
25,000ft
Speed:
(Current/Filed)
260kts
Departed: 21-Apr-20 07:49 AM
Arrived: 21-Apr-20 09:15 AM
Distance/Time
Traveled:
393nm/1:25
Distance/Time
To Go:
Arrived

Flight Plot

Page will automatically refresh every two minutes.

Flight plan parsing failed; only flown route is shown


Map Options




Map Legend


Flown Route
Filed Route
Departure Airport
Arrival Airport
Navaid (VOR, NDB)
Fix

Horizontal Profiles

Position Reports

Time Latitude Longitude Heading Altitude Ground
Speed
21-Apr-20 07:38 48.260719 -101.293341 99 1721ft 0kts
21-Apr-20 07:39 48.260719 -101.293341 99 1721ft 0kts
21-Apr-20 07:40 48.260719 -101.293341 99 1721ft 0kts
21-Apr-20 07:41 48.260719 -101.293340 99 1721ft 0kts
21-Apr-20 07:42 48.260719 -101.293340 99 1721ft 0kts
21-Apr-20 07:43 48.260719 -101.293340 99 1721ft 0kts
21-Apr-20 07:44 48.260719 -101.293340 99 1721ft 0kts
21-Apr-20 07:45 48.261246 -101.293020 8 1721ft 6kts
21-Apr-20 07:46 48.262109 -101.290419 9 1721ft 11kts
21-Apr-20 07:47 48.265110 -101.288600 122 1721ft 6kts
21-Apr-20 07:48 48.250151 -101.269080 137 2521ft 113kts
21-Apr-20 07:49 48.228581 -101.224239 116 4255ft 149kts
21-Apr-20 07:50 48.211252 -101.161566 119 6004ft 176kts
21-Apr-20 07:51 48.188535 -101.089968 117 7642ft 200kts
21-Apr-20 07:52 48.164342 -101.012534 115 9328ft 209kts
21-Apr-20 07:53 48.139224 -100.932205 113 11005ft 216kts
21-Apr-20 07:54 48.113137 -100.849045 111 12609ft 223kts
21-Apr-20 07:55 48.086396 -100.764105 111 14180ft 229kts
21-Apr-20 07:56 48.058869 -100.676943 110 15682ft 233kts
21-Apr-20 07:57 48.030935 -100.588766 110 17133ft 236kts
21-Apr-20 07:58 48.002740 -100.499912 109 18484ft 240kts
21-Apr-20 07:59 47.973149 -100.407182 109 19514ft 252kts
21-Apr-20 08:00 47.942510 -100.311652 109 20517ft 257kts
21-Apr-20 08:01 47.911398 -100.214936 108 21429ft 262kts
21-Apr-20 08:02 47.879333 -100.115597 109 22237ft 271kts
21-Apr-20 08:03 47.846139 -100.013273 108 23041ft 276kts
21-Apr-20 08:04 47.812504 -99.910002 108 23840ft 276kts
21-Apr-20 08:05 47.778953 -99.807350 107 24634ft 276kts
21-Apr-20 08:06 47.744493 -99.702158 108 24954ft 293kts
21-Apr-20 08:07 47.707477 -99.589963 109 24960ft 308kts
21-Apr-20 08:08 47.669433 -99.475166 109 24970ft 312kts
21-Apr-20 08:09 47.630846 -99.359171 109 24981ft 314kts
21-Apr-20 08:10 47.591975 -99.242817 109 24989ft 315kts
21-Apr-20 08:11 47.552854 -99.126235 109 24992ft 316kts
21-Apr-20 08:12 47.513655 -99.009942 109 24993ft 317kts
21-Apr-20 08:13 47.474111 -98.893151 110 24995ft 317kts
21-Apr-20 08:14 47.434446 -98.776525 110 24995ft 318kts
21-Apr-20 08:15 47.394484 -98.659565 110 25009ft 318kts
21-Apr-20 08:16 47.354525 -98.543115 110 25025ft 319kts
21-Apr-20 08:17 47.314227 -98.426217 110 25032ft 320kts
21-Apr-20 08:18 47.273699 -98.309181 110 25037ft 321kts
21-Apr-20 08:19 47.232960 -98.192066 110 25040ft 321kts
21-Apr-20 08:20 47.192188 -98.075375 110 25045ft 321kts
21-Apr-20 08:21 47.151197 -97.958567 110 25056ft 322kts
21-Apr-20 08:22 47.109947 -97.841542 110 25060ft 323kts
21-Apr-20 08:23 47.068269 -97.723837 110 25055ft 325kts
21-Apr-20 08:24 47.026462 -97.606307 110 25061ft 325kts
21-Apr-20 08:25 46.984551 -97.488997 110 25070ft 325kts
21-Apr-20 08:26 46.942543 -97.371937 110 25080ft 324kts
21-Apr-20 08:27 46.900430 -97.255099 110 25101ft 324kts
21-Apr-20 08:28 46.858169 -97.138354 110 25108ft 325kts
21-Apr-20 08:29 46.815774 -97.021756 110 25109ft 325kts
21-Apr-20 08:30 46.773050 -96.904782 110 25110ft 326kts
21-Apr-20 08:31 46.733194 -96.786805 102 25118ft 321kts
21-Apr-20 08:32 46.698096 -96.666570 103 25121ft 323kts
21-Apr-20 08:33 46.662069 -96.546544 104 25123ft 323kts
21-Apr-20 08:34 46.625829 -96.426619 103 25123ft 324kts
21-Apr-20 08:35 46.589454 -96.306845 104 25123ft 324kts
21-Apr-20 08:36 46.552803 -96.186730 104 25123ft 325kts
21-Apr-20 08:37 46.516000 -96.066718 104 25121ft 325kts
21-Apr-20 08:38 46.479004 -95.946631 104 25116ft 326kts
21-Apr-20 08:39 46.441807 -95.826472 104 25115ft 326kts
21-Apr-20 08:40 46.404489 -95.706496 104 25113ft 327kts
21-Apr-20 08:41 46.366922 -95.586294 104 25108ft 327kts
21-Apr-20 08:42 46.329205 -95.466176 104 25103ft 328kts
21-Apr-20 08:43 46.291392 -95.346321 104 25093ft 329kts
21-Apr-20 08:45 46.253160 -95.225711 103 25095ft 329kts
21-Apr-20 08:46 46.214978 -95.105774 103 25097ft 330kts
21-Apr-20 08:47 46.176208 -94.984498 104 24632ft 340kts
21-Apr-20 08:48 46.135296 -94.857278 105 23158ft 355kts
21-Apr-20 08:49 46.094037 -94.729716 106 21661ft 348kts
21-Apr-20 08:50 46.053219 -94.603992 106 20162ft 344kts
21-Apr-20 08:51 46.012833 -94.480202 107 18661ft 339kts
21-Apr-20 08:52 45.973005 -94.358693 108 17165ft 334kts
21-Apr-20 08:53 45.933445 -94.238557 108 15664ft 330kts
21-Apr-20 08:54 45.894330 -94.120328 108 14169ft 326kts
21-Apr-20 08:55 45.855572 -94.003730 108 12777ft 318kts
21-Apr-20 08:56 45.817870 -93.890755 109 11578ft 310kts
21-Apr-20 08:57 45.781290 -93.781669 110 10379ft 294kts
21-Apr-20 08:58 45.735754 -93.690630 149 9184ft 282kts
21-Apr-20 08:59 45.664540 -93.651160 160 7989ft 268kts
21-Apr-20 09:00 45.596166 -93.614178 160 7050ft 251kts
21-Apr-20 09:01 45.530699 -93.578885 160 7004ft 252kts
21-Apr-20 09:02 45.465031 -93.543574 160 7003ft 253kts
21-Apr-20 09:03 45.398805 -93.508066 160 7001ft 254kts
21-Apr-20 09:04 45.332632 -93.472673 160 6999ft 254kts
21-Apr-20 09:05 45.269677 -93.421839 139 6074ft 259kts
21-Apr-20 09:06 45.215682 -93.359890 134 5071ft 243kts
21-Apr-20 09:06 45.178098 -93.301565 130 4243ft 238kts
21-Apr-20 09:08 45.129293 -93.224409 133 3991ft 213kts
21-Apr-20 09:09 45.086756 -93.168396 139 3994ft 206kts
21-Apr-20 09:09 45.049035 -93.126493 144 3997ft 206kts
21-Apr-20 09:10 45.001797 -93.080473 146 3947ft 209kts
21-Apr-20 09:12 44.946736 -93.031655 148 3089ft 182kts
21-Apr-20 09:12 44.913589 -93.012225 198 2205ft 148kts
21-Apr-20 09:13 44.914089 -93.042069 329 1057ft 102kts
21-Apr-20 09:14 44.932395 -93.059530 327 710ft 38kts
21-Apr-20 09:15 44.934024 -93.062700 162 710ft 7kts
21-Apr-20 09:16 44.932729 -93.065040 154 710ft 8kts
21-Apr-20 09:17 44.932025 -93.063625 55 710ft 1kts

Navigation Log

Ident Type
Flight plan parsing failed, navigation log unavailable